createdAt,value
2023-01-04T00:01:50.247Z,12.05
2023-01-04T00:04:16.754Z,12.80
2023-01-04T00:06:43.417Z,11.63
2023-01-04T00:09:09.826Z,13.05
2023-01-04T00:11:36.260Z,13.05
2023-01-04T00:14:02.944Z,12.07
2023-01-04T00:16:29.999Z,10.77
2023-01-04T00:18:57.370Z,12.20
2023-01-04T00:21:27.014Z,11.18
2023-01-04T00:23:55.161Z,12.45
2023-01-04T00:26:35.228Z,12.40
2023-01-04T00:29:05.490Z,13.93
2023-01-04T00:31:32.699Z,14.77
2023-01-04T00:34:01.903Z,11.60
2023-01-04T00:36:28.884Z,12.75
2023-01-04T00:39:08.408Z,14.40
2023-01-04T00:41:57.930Z,10.00
2023-01-04T00:44:21.921Z,10.75
2023-01-04T00:46:48.731Z,9.07
2023-01-04T00:49:15.191Z,11.57
2023-01-04T00:51:42.186Z,12.02
2023-01-04T00:54:13.694Z,13.23
2023-01-04T00:56:40.102Z,9.25
2023-01-04T00:59:06.580Z,11.07
2023-01-04T01:01:34.302Z,10.68
2023-01-04T01:04:02.916Z,12.45
2023-01-04T01:06:31.039Z,11.80
2023-01-04T01:08:58.216Z,12.15
2023-01-04T01:11:25.301Z,19.83
2023-01-04T01:13:52.366Z,10.70
2023-01-04T01:16:44.282Z,10.80
2023-01-04T01:19:07.993Z,14.15
2023-01-04T01:21:34.535Z,13.63
2023-01-04T01:24:00.975Z,9.88
2023-01-04T01:26:27.427Z,12.38
2023-01-04T01:28:53.852Z,9.05
2023-01-04T01:31:28.236Z,12.63
2023-01-04T01:33:56.288Z,10.07
2023-01-04T01:36:25.232Z,10.73
2023-01-04T01:38:51.817Z,11.32
2023-01-04T01:41:32.214Z,10.00
2023-01-04T01:44:02.051Z,8.18
2023-01-04T01:46:38.617Z,8.45
2023-01-04T01:49:13.083Z,9.98
2023-01-04T01:51:41.466Z,7.28
2023-01-04T01:54:13.326Z,16.08
2023-01-04T01:56:42.422Z,10.82
2023-01-04T01:59:11.072Z,8.90
2023-01-04T02:01:37.659Z,9.73
2023-01-04T02:04:05.443Z,11.55
2023-01-04T02:06:40.690Z,12.80
2023-01-04T02:09:08.139Z,8.02
2023-01-04T02:11:34.544Z,7.32
2023-01-04T02:14:22.090Z,10.63
2023-01-04T02:17:10.110Z,7.88
2023-01-04T02:20:06.995Z,9.35
2023-01-04T02:22:52.049Z,7.28
2023-01-04T02:25:39.795Z,8.85
2023-01-04T02:28:38.992Z,9.10
2023-01-04T02:31:21.538Z,11.45
2023-01-04T02:34:12.039Z,8.27
2023-01-04T02:37:03.806Z,10.93
2023-01-04T02:40:05.133Z,7.32
2023-01-04T02:43:19.179Z,14.30
2023-01-04T02:45:54.211Z,6.97
2023-01-04T02:48:38.992Z,7.30
2023-01-04T02:51:05.598Z,9.80
2023-01-04T02:53:37.338Z,11.75
2023-01-04T02:56:06.736Z,12.50
2023-01-04T02:58:51.776Z,7.45
2023-01-04T03:01:55.276Z,7.88
2023-01-04T03:05:06.554Z,8.48
2023-01-04T03:07:35.768Z,8.23
2023-01-04T03:10:32.872Z,10.05
2023-01-04T03:13:28.329Z,12.85
2023-01-04T03:16:01.212Z,12.18
2023-01-04T03:18:31.879Z,9.27
2023-01-04T03:21:01.314Z,6.70
2023-01-04T03:23:51.000Z,8.30
2023-01-04T03:26:41.734Z,8.75
2023-01-04T03:29:36.495Z,11.70
2023-01-04T03:32:27.323Z,8.82
2023-01-04T03:35:13.561Z,8.65
2023-01-04T03:37:51.452Z,9.43
2023-01-04T03:40:39.753Z,13.88
2023-01-04T03:43:31.589Z,9.63
2023-01-04T03:48:57.483Z,10.38
2023-01-04T03:51:29.681Z,7.32
2023-01-04T03:54:05.855Z,9.85
2023-01-04T03:56:35.598Z,8.45
2023-01-04T03:59:02.275Z,10.15
2023-01-04T04:01:29.126Z,8.73
2023-01-04T04:04:14.803Z,7.90
2023-01-04T04:07:00.070Z,7.47
2023-01-04T04:09:26.495Z,9.10
2023-01-04T04:11:52.933Z,9.70
2023-01-04T04:14:19.377Z,9.85
2023-01-04T04:16:45.918Z,9.13
2023-01-04T04:19:12.492Z,8.85
2023-01-04T04:21:38.990Z,11.57
2023-01-04T04:24:06.177Z,8.80
2023-01-04T04:26:32.619Z,12.63
2023-01-04T04:28:59.087Z,6.85
2023-01-04T04:31:25.565Z,9.40
2023-01-04T04:33:52.033Z,11.93
2023-01-04T04:36:18.495Z,9.63
2023-01-04T04:38:44.919Z,11.30
2023-01-04T04:41:32.354Z,8.55
2023-01-04T04:43:59.175Z,9.60
2023-01-04T04:46:25.729Z,7.75
2023-01-04T04:48:52.235Z,8.00
2023-01-04T04:51:18.872Z,7.35
2023-01-04T04:53:45.651Z,8.30
2023-01-04T04:56:12.342Z,8.70
2023-01-04T04:58:38.882Z,9.05
2023-01-04T05:01:06.038Z,9.80
2023-01-04T05:03:33.278Z,8.85
2023-01-04T05:06:00.029Z,10.05
2023-01-04T05:08:26.691Z,11.63
2023-01-04T05:10:53.190Z,10.68
2023-01-04T05:13:19.678Z,8.68
2023-01-04T05:15:49.054Z,8.63
2023-01-04T05:18:18.149Z,9.48
2023-01-04T05:20:45.160Z,8.80
2023-01-04T05:23:13.725Z,8.38
2023-01-04T05:25:40.443Z,7.95
2023-01-04T05:28:08.393Z,9.00
2023-01-04T05:30:53.652Z,9.82
2023-01-04T05:33:28.227Z,7.60
2023-01-04T05:35:55.768Z,5.72
2023-01-04T05:38:22.793Z,8.10
2023-01-04T05:40:50.388Z,8.40
2023-01-04T05:43:18.544Z,5.43
2023-01-04T05:45:49.003Z,11.38
2023-01-04T05:48:15.984Z,7.65
2023-01-04T05:50:42.570Z,8.45
2023-01-04T05:53:09.040Z,6.80
2023-01-04T05:55:35.481Z,8.13
2023-01-04T05:58:01.945Z,6.72
2023-01-04T06:00:28.778Z,7.47
2023-01-04T06:02:56.997Z,6.97
2023-01-04T06:05:25.016Z,9.70
2023-01-04T06:07:51.626Z,8.57
2023-01-04T06:10:19.536Z,6.30
2023-01-04T06:12:47.168Z,7.15
2023-01-04T06:15:14.235Z,6.85
2023-01-04T06:17:41.251Z,7.88
2023-01-04T06:20:10.558Z,6.00
2023-01-04T06:22:37.313Z,8.13
2023-01-04T06:25:04.797Z,6.65
2023-01-04T06:27:31.241Z,10.35
2023-01-04T06:29:57.762Z,10.80
2023-01-04T06:32:24.287Z,7.35
2023-01-04T06:34:50.809Z,9.25
2023-01-04T06:37:17.283Z,6.35
2023-01-04T06:39:43.713Z,15.15
2023-01-04T06:42:30.060Z,6.15
2023-01-04T06:44:56.575Z,5.63
2023-01-04T06:47:22.996Z,8.10
2023-01-04T06:49:49.461Z,7.05
2023-01-04T06:52:15.907Z,12.73
2023-01-04T06:54:42.299Z,7.43
2023-01-04T06:57:08.787Z,13.77
2023-01-04T06:59:35.257Z,5.10
2023-01-04T07:02:01.788Z,9.18
2023-01-04T07:04:28.292Z,4.85
2023-01-04T07:06:54.797Z,8.30
2023-01-04T07:09:21.337Z,6.45
2023-01-04T07:11:47.778Z,6.15
2023-01-04T07:14:14.281Z,8.32
2023-01-04T07:16:40.741Z,8.45
2023-01-04T07:19:08.444Z,5.80
2023-01-04T07:21:34.929Z,7.10
2023-01-04T07:24:01.308Z,10.70
2023-01-04T07:26:27.720Z,9.40
2023-01-04T07:29:12.839Z,5.97
2023-01-04T07:31:39.270Z,6.53
2023-01-04T07:34:06.156Z,5.38
2023-01-04T07:36:32.633Z,9.63
2023-01-04T07:39:00.233Z,5.47
2023-01-04T07:41:26.707Z,7.70
2023-01-04T07:43:53.372Z,9.25
2023-01-04T07:46:21.751Z,9.80
2023-01-04T07:48:48.208Z,9.90
2023-01-04T07:51:14.772Z,5.65
2023-01-04T07:53:41.175Z,13.00
2023-01-04T07:56:09.477Z,8.88
2023-01-04T07:58:39.874Z,5.22
2023-01-04T08:01:11.667Z,9.43
2023-01-04T08:03:38.237Z,4.90
2023-01-04T08:06:10.597Z,4.95
2023-01-04T08:08:37.578Z,5.60
2023-01-04T08:11:06.406Z,14.10
2023-01-04T08:13:33.430Z,4.63
2023-01-04T08:15:59.927Z,3.53
2023-01-04T08:18:26.561Z,7.13
2023-01-04T08:21:04.405Z,4.28
2023-01-04T08:23:31.343Z,3.67
2023-01-04T08:26:03.022Z,4.28
2023-01-04T08:30:55.845Z,3.85
2023-01-04T08:33:22.264Z,4.25
2023-01-04T08:35:48.680Z,3.45
2023-01-04T08:38:56.080Z,6.85
2023-01-04T08:41:23.113Z,5.68
2023-01-04T08:43:49.076Z,7.20
2023-01-04T08:46:15.926Z,5.80
2023-01-04T08:48:42.938Z,4.00
2023-01-04T08:51:12.048Z,4.57
2023-01-04T08:53:38.539Z,3.80
2023-01-04T08:56:06.655Z,4.78
2023-01-04T08:58:34.012Z,4.15
2023-01-04T09:01:06.487Z,4.95
2023-01-04T09:03:33.869Z,7.40
2023-01-04T09:06:09.924Z,5.53
2023-01-04T09:08:38.675Z,4.20
2023-01-04T09:11:11.156Z,3.75
2023-01-04T09:13:37.875Z,3.10
2023-01-04T09:16:07.226Z,5.75
2023-01-04T09:18:34.705Z,4.82
2023-01-04T09:21:13.415Z,5.35
2023-01-04T09:23:40.750Z,4.68
2023-01-04T09:26:14.904Z,8.65
2023-01-04T09:28:42.686Z,6.03
2023-01-04T09:31:14.667Z,4.38
2023-01-04T09:34:12.952Z,8.00
2023-01-04T09:36:28.734Z,4.50
2023-01-04T09:38:55.659Z,6.13
2023-01-04T09:41:34.620Z,4.53
2023-01-04T09:44:04.885Z,5.68
2023-01-04T09:46:46.645Z,4.32
2023-01-04T09:49:32.035Z,4.50
2023-01-04T09:52:21.952Z,4.95
2023-01-04T09:55:04.859Z,5.65
2023-01-04T09:57:55.383Z,5.63
2023-01-04T10:00:30.215Z,2.92
2023-01-04T10:03:11.939Z,3.58
2023-01-04T10:05:40.094Z,5.20
2023-01-04T10:08:16.259Z,3.97
2023-01-04T10:10:56.306Z,5.28
2023-01-04T10:13:36.786Z,4.53
2023-01-04T10:16:06.238Z,8.05
2023-01-04T10:21:54.025Z,3.15
2023-01-04T10:24:42.338Z,5.85
2023-01-04T10:27:42.995Z,5.50
2023-01-04T10:30:44.275Z,11.77
2023-01-04T10:33:21.271Z,7.07
2023-01-04T10:35:48.685Z,5.28
2023-01-04T10:38:28.007Z,7.00
2023-01-04T10:40:57.841Z,4.13
2023-01-04T10:44:10.989Z,3.45
2023-01-04T10:46:45.447Z,7.93
2023-01-04T10:49:23.141Z,8.38
2023-01-04T10:52:15.721Z,6.57
2023-01-04T10:54:55.054Z,5.38
2023-01-04T10:57:37.013Z,7.40
2023-01-04T11:00:21.866Z,4.78
2023-01-04T11:03:12.325Z,7.07
2023-01-04T11:05:54.305Z,4.47
2023-01-04T11:11:08.187Z,8.07
2023-01-04T11:13:35.336Z,4.60
2023-01-04T11:16:05.359Z,5.07
2023-01-04T11:18:35.383Z,8.60
2023-01-04T11:21:06.396Z,5.75
2023-01-04T11:23:32.796Z,4.97
2023-01-04T11:26:05.932Z,4.00
2023-01-04T11:28:45.933Z,3.55
2023-01-04T11:31:23.167Z,6.07
2023-01-04T11:33:57.193Z,2.67
2023-01-04T11:36:34.609Z,3.15
2023-01-04T11:39:01.147Z,5.68
2023-01-04T11:41:28.081Z,5.55
2023-01-04T11:44:05.183Z,5.65
2023-01-04T11:46:33.915Z,4.50
2023-01-04T11:49:00.418Z,2.83
2023-01-04T11:51:26.834Z,5.15
2023-01-04T11:53:57.571Z,5.72
2023-01-04T11:56:26.515Z,5.07
2023-01-04T11:59:20.924Z,6.75
2023-01-04T12:02:10.817Z,3.35
2023-01-04T12:04:37.457Z,3.70
2023-01-04T12:07:13.822Z,4.85
2023-01-04T12:09:40.299Z,4.30
2023-01-04T12:12:12.348Z,3.13
2023-01-04T12:14:48.236Z,5.20
2023-01-04T12:17:38.056Z,8.57
2023-01-04T12:20:21.003Z,7.93
2023-01-04T12:22:47.800Z,4.05
2023-01-04T12:25:23.509Z,7.85
2023-01-04T12:27:51.810Z,5.10
2023-01-04T12:30:37.315Z,5.47
2023-01-04T12:33:31.715Z,6.20
2023-01-04T12:36:04.056Z,4.57
2023-01-04T12:39:05.017Z,4.57
2023-01-04T12:41:34.202Z,3.63
2023-01-04T12:44:02.057Z,3.70
2023-01-04T12:46:46.984Z,4.13
2023-01-04T12:49:28.494Z,3.28
2023-01-04T12:52:31.948Z,5.85
2023-01-04T12:55:02.881Z,4.13
2023-01-04T12:57:37.894Z,4.57
2023-01-04T13:00:16.291Z,4.63
2023-01-04T13:02:48.049Z,3.53
2023-01-04T13:08:11.230Z,3.53
2023-01-04T13:10:49.931Z,4.70
2023-01-04T13:13:34.544Z,5.68
2023-01-04T13:16:20.228Z,5.30
2023-01-04T13:18:50.413Z,3.92
2023-01-04T13:21:25.832Z,2.97
2023-01-04T13:23:55.604Z,5.43
2023-01-04T13:26:28.089Z,4.63
2023-01-04T13:29:15.878Z,2.85
2023-01-04T13:31:50.156Z,2.88
2023-01-04T13:34:21.727Z,2.63
2023-01-04T13:36:56.801Z,6.68
2023-01-04T13:39:24.199Z,4.75
2023-01-04T13:41:52.817Z,2.80
2023-01-04T13:47:44.912Z,3.70
2023-01-04T13:50:31.283Z,2.55
2023-01-04T13:53:08.196Z,3.75
2023-01-04T13:55:37.907Z,3.97
2023-01-04T13:58:07.466Z,3.50
2023-01-04T14:00:45.131Z,4.47
2023-01-04T14:03:25.142Z,5.10
2023-01-04T14:05:59.887Z,2.67
2023-01-04T14:08:38.622Z,3.08
2023-01-04T14:11:15.770Z,2.80
2023-01-04T14:13:48.075Z,5.50
2023-01-04T14:16:15.288Z,2.50
2023-01-04T14:18:41.864Z,3.70
2023-01-04T14:21:17.545Z,2.83
2023-01-04T14:23:44.121Z,2.42
2023-01-04T14:26:30.369Z,3.30
2023-01-04T14:28:56.795Z,3.35
2023-01-04T14:31:28.096Z,3.83
2023-01-04T14:33:55.121Z,3.67
2023-01-04T14:36:28.055Z,2.05
2023-01-04T14:38:57.026Z,2.47
2023-01-04T14:41:31.362Z,2.42
2023-01-04T14:44:00.785Z,2.38
2023-01-04T14:46:32.080Z,3.00
2023-01-04T14:48:58.944Z,2.53
2023-01-04T14:51:38.039Z,2.13
2023-01-04T14:54:06.477Z,2.08
2023-01-04T14:56:33.802Z,3.75
2023-01-04T14:59:00.668Z,2.15
2023-01-04T15:01:28.221Z,2.10
2023-01-04T15:03:54.725Z,5.45
2023-01-04T15:06:21.181Z,1.73
2023-01-04T15:08:48.634Z,3.95
2023-01-04T15:11:15.750Z,2.88
2023-01-04T15:13:42.198Z,1.73
2023-01-04T15:16:12.623Z,2.10
2023-01-04T15:18:40.382Z,1.33
2023-01-04T15:21:06.968Z,3.03
2023-01-04T15:23:33.475Z,1.35
2023-01-04T15:26:01.751Z,2.33
2023-01-04T15:28:28.256Z,1.38
2023-01-04T15:30:54.785Z,1.65
2023-01-04T15:33:21.208Z,1.02
2023-01-04T15:35:47.773Z,1.20
2023-01-04T15:38:18.441Z,1.02
2023-01-04T15:40:45.148Z,2.13
2023-01-04T15:43:11.937Z,2.53
2023-01-04T15:45:39.859Z,1.13
2023-01-04T15:48:09.479Z,5.63
2023-01-04T15:50:38.645Z,2.08
2023-01-04T15:53:09.534Z,1.50
2023-01-04T15:55:37.493Z,2.25
2023-01-04T15:58:05.751Z,1.75
2023-01-04T16:00:32.878Z,2.58
2023-01-04T16:02:59.429Z,1.73
2023-01-04T16:05:26.085Z,1.85
2023-01-04T16:07:52.548Z,1.70
2023-01-04T16:10:19.051Z,4.05
2023-01-04T16:12:49.855Z,3.33
2023-01-04T16:15:21.549Z,2.08
2023-01-04T16:17:48.862Z,3.60
2023-01-04T16:20:17.957Z,1.33
2023-01-04T16:22:44.855Z,1.25
2023-01-04T16:25:12.375Z,1.52
2023-01-04T16:27:39.678Z,3.20
2023-01-04T16:30:09.308Z,1.42
2023-01-04T16:32:36.473Z,3.97
2023-01-04T16:35:03.461Z,1.65
2023-01-04T16:37:30.621Z,1.48
2023-01-04T16:40:06.216Z,1.10
2023-01-04T16:42:33.701Z,0.90
2023-01-04T16:45:00.272Z,5.00
2023-01-04T16:47:26.721Z,1.20
2023-01-04T16:49:53.539Z,1.17
2023-01-04T16:52:20.221Z,3.08
2023-01-04T16:54:46.702Z,1.65
2023-01-04T16:57:13.153Z,1.00
2023-01-04T16:59:39.695Z,1.20
2023-01-04T17:02:06.385Z,2.10
2023-01-04T17:04:33.048Z,1.23
2023-01-04T17:06:59.707Z,1.27
2023-01-04T17:09:26.230Z,1.20
2023-01-04T17:14:49.112Z,2.08
2023-01-04T17:17:23.819Z,2.00
2023-01-04T17:19:50.301Z,1.10
2023-01-04T17:22:16.933Z,2.60
2023-01-04T17:24:43.408Z,2.88
2023-01-04T17:27:10.724Z,3.95
2023-01-04T17:29:37.203Z,1.40
2023-01-04T17:32:03.894Z,2.10
2023-01-04T17:34:30.385Z,2.00
2023-01-04T17:36:56.858Z,2.53
2023-01-04T17:39:23.315Z,3.90
2023-01-04T17:41:49.859Z,2.58
2023-01-04T17:44:16.312Z,1.52
2023-01-04T17:46:43.294Z,2.38
2023-01-04T17:49:31.866Z,2.58
2023-01-04T17:51:59.116Z,2.67
2023-01-04T17:54:26.750Z,2.00
2023-01-04T17:56:53.261Z,6.50
2023-01-04T17:59:19.753Z,5.65
2023-01-04T18:01:46.193Z,4.68
2023-01-04T18:04:13.007Z,4.47
2023-01-04T18:06:39.877Z,4.20
2023-01-04T18:09:08.081Z,3.67
2023-01-04T18:11:35.757Z,1.80
2023-01-04T18:14:05.834Z,3.70
2023-01-04T18:16:56.215Z,5.47
2023-01-04T18:19:29.045Z,2.25
2023-01-04T18:21:56.614Z,4.53
2023-01-04T18:24:39.298Z,6.90
2023-01-04T18:27:25.505Z,7.15
2023-01-04T18:29:53.765Z,4.40
2023-01-04T18:32:20.853Z,5.43
2023-01-04T18:34:47.438Z,3.92
2023-01-04T18:37:15.624Z,4.18
2023-01-04T18:39:42.139Z,5.30
2023-01-04T18:42:08.609Z,4.95
2023-01-04T18:44:35.981Z,4.25
2023-01-04T18:47:03.635Z,4.38
2023-01-04T18:49:30.243Z,4.72
2023-01-04T18:51:56.960Z,5.97
2023-01-04T18:54:23.501Z,4.63
2023-01-04T18:56:51.288Z,6.38
2023-01-04T18:59:19.787Z,4.10
2023-01-04T19:01:46.540Z,5.82
2023-01-04T19:04:16.068Z,6.15
2023-01-04T19:06:42.967Z,7.10
2023-01-04T19:09:09.537Z,8.05
2023-01-04T19:11:36.181Z,3.05
2023-01-04T19:14:03.557Z,3.50
2023-01-04T19:16:31.480Z,5.45
2023-01-04T19:19:01.383Z,6.53
2023-01-04T19:21:28.689Z,9.35
2023-01-04T19:23:55.395Z,4.03
2023-01-04T19:26:22.647Z,5.22
2023-01-04T19:28:49.443Z,4.95
2023-01-04T19:31:17.679Z,9.13
2023-01-04T19:33:44.984Z,8.55
2023-01-04T19:36:13.337Z,6.15
2023-01-04T19:38:40.386Z,7.85
2023-01-04T19:41:07.913Z,6.45
2023-01-04T19:43:35.271Z,5.90
2023-01-04T19:46:01.839Z,6.70
2023-01-04T19:48:28.753Z,8.50
2023-01-04T19:51:21.254Z,9.55
2023-01-04T19:53:47.734Z,8.18
2023-01-04T19:56:16.129Z,9.38
2023-01-04T19:58:42.945Z,5.75
2023-01-04T20:01:18.535Z,8.23
2023-01-04T20:03:45.405Z,5.25
2023-01-04T20:06:13.160Z,7.38
2023-01-04T20:08:40.567Z,9.10
2023-01-04T20:11:08.605Z,8.32
2023-01-04T20:13:35.569Z,11.77
2023-01-04T20:16:04.920Z,7.32
2023-01-04T20:18:32.252Z,8.50
2023-01-04T20:20:59.084Z,9.80
2023-01-04T20:23:25.955Z,11.10
2023-01-04T20:25:54.072Z,6.72
2023-01-04T20:28:23.862Z,10.68
2023-01-04T20:31:04.164Z,18.00
2023-01-04T20:33:30.865Z,6.20
2023-01-04T20:35:57.606Z,12.38
2023-01-04T20:38:24.463Z,18.60
2023-01-04T20:40:50.889Z,14.30
2023-01-04T20:43:36.283Z,8.35
2023-01-04T20:46:08.893Z,15.43
2023-01-04T20:48:35.357Z,7.22
2023-01-04T20:51:06.977Z,12.73
2023-01-04T20:53:33.868Z,8.32
2023-01-04T20:56:08.519Z,5.63
2023-01-04T20:58:35.321Z,10.18
2023-01-04T21:01:04.218Z,10.02
2023-01-04T21:03:30.893Z,9.90
2023-01-04T21:06:00.963Z,11.10
2023-01-04T21:08:27.422Z,7.63
2023-01-04T21:10:53.875Z,11.13
2023-01-04T21:13:20.370Z,16.35
2023-01-04T21:15:46.850Z,13.15
2023-01-04T21:18:13.551Z,8.05
2023-01-04T21:20:43.749Z,7.00
2023-01-04T21:23:21.863Z,13.05
2023-01-04T21:25:51.873Z,13.48
2023-01-04T21:28:21.185Z,12.70
2023-01-04T21:30:49.508Z,8.35
2023-01-04T21:33:16.393Z,8.45
2023-01-04T21:35:43.148Z,11.65
2023-01-04T21:38:11.264Z,6.38
2023-01-04T21:40:39.733Z,11.40
2023-01-04T21:43:07.139Z,5.38
2023-01-04T21:45:38.334Z,14.30
2023-01-04T21:48:04.978Z,11.38
2023-01-04T21:50:32.135Z,7.00
2023-01-04T21:53:00.017Z,7.57
2023-01-04T21:55:32.402Z,10.55
2023-01-04T21:58:00.818Z,15.15
2023-01-04T22:00:27.289Z,7.50
2023-01-04T22:02:53.856Z,15.65
2023-01-04T22:05:20.417Z,10.75
2023-01-04T22:07:46.931Z,9.40
2023-01-04T22:10:13.392Z,7.05
2023-01-04T22:12:40.081Z,2.05
2023-01-04T22:15:07.213Z,6.05
2023-01-04T22:17:33.628Z,1.88
2023-01-04T22:20:00.169Z,4.68
2023-01-04T22:22:29.352Z,5.55
2023-01-04T22:24:55.718Z,4.38
2023-01-04T22:27:22.126Z,5.50
2023-01-04T22:29:48.516Z,6.32
2023-01-04T22:32:14.984Z,9.27
2023-01-04T22:34:42.038Z,9.82
2023-01-04T22:37:08.442Z,5.25
2023-01-04T22:39:34.833Z,1.50
2023-01-04T22:42:01.267Z,3.10
2023-01-04T22:44:27.669Z,6.38
2023-01-04T22:46:54.188Z,5.22
2023-01-04T22:49:20.614Z,3.47
2023-01-04T22:51:47.029Z,4.13
2023-01-04T22:54:13.621Z,2.53
2023-01-04T22:56:40.104Z,2.85
2023-01-04T22:59:06.492Z,5.70
2023-01-04T23:01:34.156Z,3.47
2023-01-04T23:04:01.891Z,1.58
2023-01-04T23:06:30.598Z,1.00
2023-01-04T23:09:07.844Z,5.35
2023-01-04T23:11:35.483Z,1.70
2023-01-04T23:14:03.802Z,3.15
2023-01-04T23:16:32.958Z,1.58
2023-01-04T23:19:01.874Z,1.58
2023-01-04T23:21:28.941Z,2.88
2023-01-04T23:23:55.438Z,3.83
2023-01-04T23:26:23.724Z,3.50
2023-01-04T23:28:50.847Z,3.65
2023-01-04T23:31:23.533Z,0.75
2023-01-04T23:33:58.284Z,4.72
2023-01-04T23:36:27.813Z,2.97
2023-01-04T23:39:00.745Z,2.35
2023-01-04T23:41:46.290Z,3.55
2023-01-04T23:44:15.916Z,3.45
2023-01-04T23:46:42.546Z,1.10
2023-01-04T23:49:09.648Z,3.78
2023-01-04T23:51:36.062Z,2.88
2023-01-04T23:54:02.442Z,2.42
2023-01-04T23:56:30.181Z,1.65
2023-01-04T23:58:56.545Z,1.98
